Time;durP1;ratioP1;P1;durP2;ratioP2;P2;SDS_P1;SDS_P2;PMS_P1;PMS_P2;Temp;Humidity;BMP_temperature;BMP_pressure;BME280_temperature;BME280_humidity;BME280_pressure;Samples;Min_cycle;Max_cycle;Signal;HPM_P1;HPM_P2
2021/09/04 00:02:03;;;;;;;10.80;3.20;;;;;;;10.91;100.00;101830.81;4943436;28;20046;-80
2021/09/04 00:04:29;;;;;;;12.05;3.38;;;;;;;11.05;100.00;101828.88;4975490;28;20747;-81
2021/09/04 00:06:54;;;;;;;12.77;3.13;;;;;;;11.19;100.00;101831.22;4945301;28;20046;-80
2021/09/04 00:09:20;;;;;;;14.48;3.00;;;;;;;11.11;100.00;101815.22;4975219;28;20050;-80
2021/09/04 00:11:53;;;;;;;9.30;3.10;;;;;;;11.02;100.00;101829.94;4978473;28;20034;-80
2021/09/04 00:14:19;;;;;;;15.18;3.63;;;;;;;10.97;100.00;101834.72;4945889;28;20113;-80
2021/09/04 00:16:45;;;;;;;8.88;2.83;;;;;;;10.91;100.00;101824.72;4977093;28;20472;-80
2021/09/04 00:19:11;;;;;;;14.90;3.60;;;;;;;10.93;100.00;101837.72;4980720;28;20120;-81
2021/09/04 00:21:36;;;;;;;10.77;3.28;;;;;;;10.87;100.00;101824.13;4988411;28;20073;-79
2021/09/04 00:24:02;;;;;;;15.43;3.30;;;;;;;10.73;100.00;101816.50;4962041;28;20034;-80
2021/09/04 00:26:28;;;;;;;19.55;3.40;;;;;;;10.83;100.00;101827.97;4988051;28;20456;-80
2021/09/04 00:28:53;;;;;;;12.25;3.15;;;;;;;10.83;100.00;101830.59;4968874;28;20092;-79
2021/09/04 00:31:19;;;;;;;10.38;3.35;;;;;;;10.68;100.00;101826.53;4945641;28;20049;-79
2021/09/04 00:33:44;;;;;;;15.23;3.58;;;;;;;10.79;100.00;101834.38;4991669;28;20041;-79
2021/09/04 00:36:10;;;;;;;6.72;2.90;;;;;;;10.55;100.00;101817.94;4975530;28;20181;-80
2021/09/04 00:38:36;;;;;;;8.85;3.08;;;;;;;10.51;100.00;101822.63;4973463;28;20038;-78
2021/09/04 00:41:01;;;;;;;14.55;3.47;;;;;;;10.54;100.00;101825.00;4977729;28;20039;-78
2021/09/04 00:43:27;;;;;;;17.00;3.60;;;;;;;10.49;100.00;101822.75;4953177;28;20039;-79
2021/09/04 00:45:52;;;;;;;16.45;3.50;;;;;;;10.45;100.00;101833.56;4968253;28;20111;-80
2021/09/04 00:48:17;;;;;;;14.32;3.42;;;;;;;10.46;100.00;101836.09;4962542;28;20039;-80
2021/09/04 00:50:43;;;;;;;14.35;3.28;;;;;;;10.31;100.00;101832.03;4983894;28;20666;-80
2021/09/04 00:53:09;;;;;;;8.65;3.30;;;;;;;10.29;100.00;101832.09;4967966;28;20065;-79
2021/09/04 00:55:36;;;;;;;13.05;3.22;;;;;;;10.32;100.00;101831.06;4971350;28;20074;-79
2021/09/04 00:58:03;;;;;;;12.15;3.20;;;;;;;10.29;100.00;101828.66;4959757;28;20707;-79
2021/09/04 01:00:30;;;;;;;17.40;3.42;;;;;;;10.25;100.00;101828.06;4965940;28;20105;-78
2021/09/04 01:02:56;;;;;;;9.93;3.20;;;;;;;10.22;100.00;101825.66;4960645;28;20042;-80
2021/09/04 01:05:22;;;;;;;8.45;3.13;;;;;;;10.20;100.00;101831.97;4990693;28;20481;-80
2021/09/04 01:07:48;;;;;;;10.43;4.05;;;;;;;10.24;100.00;101843.91;4971931;28;20096;-81
2021/09/04 01:10:14;;;;;;;10.82;2.92;;;;;;;10.24;100.00;101820.31;4968911;28;20772;-79
2021/09/04 01:12:39;;;;;;;12.88;3.55;;;;;;;10.37;100.00;101838.59;5002379;28;20034;-81
2021/09/04 01:15:07;;;;;;;10.50;3.63;;;;;;;10.37;100.00;101825.47;4962301;28;20037;-79
2021/09/04 01:17:33;;;;;;;11.88;3.08;;;;;;;10.18;100.00;101819.00;4954284;28;20110;-79
2021/09/04 01:19:59;;;;;;;14.85;4.30;;;;;;;10.35;100.00;101824.75;4973535;28;20034;-79
2021/09/04 01:22:24;;;;;;;9.70;3.53;;;;;;;10.40;100.00;101830.50;4978659;28;20113;-76
2021/09/04 01:24:50;;;;;;;11.15;3.30;;;;;;;10.31;100.00;101824.97;4975821;28;20043;-79
2021/09/04 01:27:17;;;;;;;7.57;3.08;;;;;;;10.31;100.00;101834.66;4933179;28;20054;-79
2021/09/04 01:29:43;;;;;;;8.07;2.83;;;;;;;10.26;100.00;101834.97;4984133;28;20034;-79
2021/09/04 01:32:09;;;;;;;13.45;3.95;;;;;;;10.37;100.00;101835.97;4960491;28;20093;-79
2021/09/04 01:34:34;;;;;;;10.25;3.45;;;;;;;10.32;100.00;101831.91;4941080;28;20035;-79
2021/09/04 01:37:00;;;;;;;8.82;3.17;;;;;;;10.29;100.00;101823.41;4974016;28;20675;-80
2021/09/04 01:39:25;;;;;;;14.02;3.83;;;;;;;10.38;100.00;101817.50;4988843;28;20038;-79
2021/09/04 01:41:51;;;;;;;12.20;3.42;;;;;;;10.48;100.00;101826.31;5000262;28;20114;-79
2021/09/04 01:44:16;;;;;;;14.57;3.47;;;;;;;10.39;100.00;101821.78;4977584;28;20132;-80
2021/09/04 01:46:42;;;;;;;13.02;3.50;;;;;;;10.40;100.00;101814.75;4950015;28;20117;-78
2021/09/04 01:49:09;;;;;;;12.35;3.28;;;;;;;10.45;100.00;101823.94;4942737;28;20073;-81
2021/09/04 01:51:34;;;;;;;12.25;3.85;;;;;;;10.56;100.00;101817.00;4978881;28;20155;-81
2021/09/04 01:54:00;;;;;;;10.85;3.10;;;;;;;10.55;100.00;101812.69;4956672;28;20048;-79
2021/09/04 01:56:26;;;;;;;10.30;3.20;;;;;;;10.54;100.00;101809.25;4983748;28;20114;-80
2021/09/04 01:58:51;;;;;;;10.55;3.33;;;;;;;10.56;100.00;101806.50;4956800;28;20038;-81
2021/09/04 02:01:17;;;;;;;9.63;3.10;;;;;;;10.58;100.00;101815.91;4957680;28;20037;-80
2021/09/04 02:03:43;;;;;;;12.38;3.60;;;;;;;10.70;100.00;101806.28;4958983;28;20037;-78
2021/09/04 02:06:09;;;;;;;13.98;3.63;;;;;;;10.67;100.00;101809.94;4941422;28;20085;-80
2021/09/04 02:08:34;;;;;;;8.48;2.92;;;;;;;10.71;100.00;101800.06;4974433;28;20026;-80
2021/09/04 02:11:00;;;;;;;10.25;3.65;;;;;;;10.81;100.00;101800.16;4973970;28;20054;-79
2021/09/04 02:13:27;;;;;;;12.70;3.35;;;;;;;10.83;100.00;101801.72;4968779;28;20052;-78
2021/09/04 02:15:53;;;;;;;10.65;3.35;;;;;;;10.84;100.00;101799.91;4958875;28;20018;-79
2021/09/04 02:18:20;;;;;;;9.70;2.90;;;;;;;10.92;100.00;101792.25;4964393;28;20098;-80
2021/09/04 02:20:48;;;;;;;6.10;2.70;;;;;;;10.94;100.00;101784.25;4974091;28;20066;-80
2021/09/04 02:23:16;;;;;;;9.85;3.05;;;;;;;10.99;100.00;101787.34;4966052;28;20050;-79
2021/09/04 02:25:42;;;;;;;8.93;3.10;;;;;;;11.09;100.00;101799.63;4964419;28;20057;-77
2021/09/04 02:28:09;;;;;;;9.30;3.28;;;;;;;11.00;100.00;101787.25;4972460;28;20042;-79
2021/09/04 02:30:35;;;;;;;11.35;3.17;;;;;;;11.18;100.00;101794.56;4970978;28;20076;-79
2021/09/04 02:33:00;;;;;;;5.95;3.00;;;;;;;11.15;100.00;101776.44;4981404;28;20113;-79
2021/09/04 02:35:26;;;;;;;8.25;2.83;;;;;;;11.22;100.00;101796.81;4995244;28;20066;-80
2021/09/04 02:37:52;;;;;;;10.35;2.63;;;;;;;11.28;100.00;101796.34;4987529;28;20172;-81
2021/09/04 02:40:18;;;;;;;7.38;2.70;;;;;;;11.32;100.00;101799.56;4982091;28;20527;-79
2021/09/04 02:42:44;;;;;;;8.38;3.03;;;;;;;11.33;100.00;101777.56;4985739;28;20767;-78
2021/09/04 02:45:10;;;;;;;6.78;2.55;;;;;;;11.50;100.00;101797.19;4994031;28;20428;-81
2021/09/04 02:47:38;;;;;;;10.02;2.85;;;;;;;11.43;100.00;101782.88;4966382;28;20504;-80
2021/09/04 02:50:04;;;;;;;8.43;2.58;;;;;;;11.55;100.00;101779.25;4973094;28;20065;-80
2021/09/04 02:52:30;;;;;;;8.68;2.97;;;;;;;11.67;100.00;101791.34;5007901;28;20113;-79
2021/09/04 02:54:56;;;;;;;5.72;2.65;;;;;;;11.71;100.00;101785.84;4977046;28;20594;-78
2021/09/04 02:57:22;;;;;;;12.07;3.13;;;;;;;11.67;100.00;101794.00;4956262;28;20049;-78
2021/09/04 02:59:48;;;;;;;7.38;2.85;;;;;;;11.72;100.00;101784.91;4953373;28;20100;-79
2021/09/04 03:04:53;;;;;;;12.35;4.28;;;;;;;11.72;100.00;101777.84;4999584;28;20066;-80
2021/09/04 03:07:19;;;;;;;9.57;3.05;;;;;;;11.77;100.00;101780.06;4994940;28;20025;-80
2021/09/04 03:09:46;;;;;;;9.80;3.05;;;;;;;11.81;100.00;101786.75;4996079;28;20084;-80
2021/09/04 03:12:12;;;;;;;7.57;2.47;;;;;;;11.78;100.00;101785.22;4997166;28;20042;-80
2021/09/04 03:14:38;;;;;;;7.50;3.70;;;;;;;11.86;100.00;101787.19;5013952;28;20387;-81
2021/09/04 03:17:05;;;;;;;8.20;3.00;;;;;;;11.82;100.00;101780.53;5014172;28;20041;-82
2021/09/04 03:19:32;;;;;;;6.93;3.22;;;;;;;11.84;100.00;101787.31;4998236;28;20034;-82
2021/09/04 03:21:58;;;;;;;10.20;3.22;;;;;;;11.83;100.00;101792.72;4997524;28;20040;-81
2021/09/04 03:24:23;;;;;;;10.85;4.90;;;;;;;11.90;100.00;101785.16;4968880;28;20069;-82
2021/09/04 03:26:49;;;;;;;7.63;3.70;;;;;;;11.96;100.00;101788.13;4980145;28;20116;-81
2021/09/04 03:29:17;;;;;;;10.35;5.10;;;;;;;12.03;100.00;101791.88;4981496;28;20620;-82
2021/09/04 03:31:43;;;;;;;9.95;5.03;;;;;;;12.03;100.00;101783.16;5014415;28;20091;-81
2021/09/04 03:34:09;;;;;;;14.85;5.35;;;;;;;12.13;100.00;101793.72;4997287;28;20030;-80
2021/09/04 03:36:35;;;;;;;9.68;5.53;;;;;;;12.22;100.00;101795.56;4981632;28;20121;-81
2021/09/04 03:39:02;;;;;;;20.25;5.80;;;;;;;12.19;100.00;101793.22;4981591;28;20038;-80
2021/09/04 03:41:28;;;;;;;13.70;5.18;;;;;;;12.16;100.00;101783.78;4997626;28;20045;-81
2021/09/04 03:43:55;;;;;;;9.38;5.15;;;;;;;12.32;99.33;101795.63;4973763;28;20128;-83
2021/09/04 03:46:21;;;;;;;10.20;5.15;;;;;;;12.29;100.00;101783.56;5000171;28;20030;-80
2021/09/04 03:48:47;;;;;;;7.30;5.10;;;;;;;12.31;100.00;101789.53;4997364;28;20038;-81
2021/09/04 03:51:13;;;;;;;11.02;5.30;;;;;;;12.25;100.00;101792.69;4981101;28;20034;-80
2021/09/04 03:53:39;;;;;;;8.30;5.15;;;;;;;12.24;100.00;101794.50;4996848;28;20029;-81
2021/09/04 03:56:06;;;;;;;11.38;4.38;;;;;;;12.30;100.00;101789.66;5013361;28;20097;-81
2021/09/04 03:58:32;;;;;;;8.23;3.90;;;;;;;12.37;99.59;101796.06;4997171;28;20033;-80
2021/09/04 04:00:58;;;;;;;7.78;4.25;;;;;;;12.39;100.00;101794.94;4980972;28;20040;-81
2021/09/04 04:03:24;;;;;;;8.23;5.20;;;;;;;12.31;100.00;101780.81;4997063;28;20026;-83
2021/09/04 04:05:49;;;;;;;12.80;4.63;;;;;;;12.34;100.00;101794.53;5013525;28;20034;-84
2021/09/04 04:08:15;;;;;;;7.93;4.10;;;;;;;12.41;100.00;101787.78;4980757;28;20062;-81
2021/09/04 04:10:42;;;;;;;6.85;4.05;;;;;;;12.37;100.00;101783.72;4980100;28;20042;-82
2021/09/04 04:13:07;;;;;;;7.18;4.25;;;;;;;12.35;100.00;101783.03;4996481;28;20076;-81
2021/09/04 04:15:34;;;;;;;12.13;4.78;;;;;;;12.35;100.00;101788.28;4981077;28;20076;-80
2021/09/04 04:18:00;;;;;;;13.38;4.72;;;;;;;12.40;100.00;101785.28;5009816;28;20063;-83
2021/09/04 04:20:26;;;;;;;11.77;4.85;;;;;;;12.44;100.00;101784.03;4993693;28;20077;-81
2021/09/04 04:22:51;;;;;;;8.77;4.30;;;;;;;12.37;100.00;101778.47;4992625;28;20458;-81
2021/09/04 04:25:17;;;;;;;11.88;4.85;;;;;;;12.45;100.00;101783.06;4981372;28;20042;-79
2021/09/04 04:27:42;;;;;;;9.07;4.63;;;;;;;12.45;100.00;101785.69;4977333;28;20045;-79
2021/09/04 04:30:10;;;;;;;10.93;4.70;;;;;;;12.41;100.00;101792.19;4993622;28;20042;-81
2021/09/04 04:32:36;;;;;;;8.55;5.60;;;;;;;12.46;100.00;101787.38;5011732;28;20029;-80
2021/09/04 04:35:03;;;;;;;14.27;4.78;;;;;;;12.40;100.00;101793.16;4993186;28;20034;-81
2021/09/04 04:37:28;;;;;;;14.98;5.13;;;;;;;12.43;100.00;101796.38;4991775;28;20422;-81
2021/09/04 04:39:54;;;;;;;14.98;5.45;;;;;;;12.40;100.00;101801.06;4996143;28;20092;-81
2021/09/04 04:42:20;;;;;;;12.50;4.95;;;;;;;12.49;100.00;101807.31;4996666;28;20775;-82
2021/09/04 04:44:46;;;;;;;13.70;4.88;;;;;;;12.60;99.96;101796.69;4999129;28;20041;-81
2021/09/04 04:47:12;;;;;;;9.90;4.57;;;;;;;12.51;100.00;101787.81;4982063;28;20033;-79
2021/09/04 04:49:38;;;;;;;12.43;5.25;;;;;;;12.48;99.85;101795.13;5012835;28;20030;-82
2021/09/04 04:52:04;;;;;;;16.10;5.20;;;;;;;12.50;98.55;101787.94;4994770;28;20033;-83
2021/09/04 04:54:30;;;;;;;10.35;4.82;;;;;;;12.49;100.00;101791.53;4973050;28;20122;-82
2021/09/04 04:56:56;;;;;;;14.13;5.53;;;;;;;12.47;100.00;101789.06;4996396;28;20042;-80
2021/09/04 04:59:23;;;;;;;10.32;5.80;;;;;;;12.60;94.92;101788.78;4996104;28;20033;-82
2021/09/04 05:01:49;;;;;;;12.65;6.18;;;;;;;12.65;97.56;101791.84;4995642;28;20096;-82
2021/09/04 05:04:18;;;;;;;13.50;6.50;;;;;;;12.60;100.00;101788.78;4988295;28;20038;-81
2021/09/04 05:06:44;;;;;;;12.43;5.60;;;;;;;12.63;98.63;101792.00;4995661;28;20041;-82
2021/09/04 05:09:11;;;;;;;15.07;6.22;;;;;;;12.71;97.57;101793.13;4995866;28;20026;-81
2021/09/04 05:11:36;;;;;;;13.35;5.55;;;;;;;12.75;98.11;101798.00;4979315;28;20053;-82
2021/09/04 05:14:03;;;;;;;13.57;5.55;;;;;;;12.76;99.04;101791.75;4995319;28;20037;-81
2021/09/04 05:16:29;;;;;;;17.50;5.93;;;;;;;12.79;96.38;101795.91;4992171;28;20124;-82
2021/09/04 05:18:55;;;;;;;15.82;6.80;;;;;;;12.91;95.34;101796.63;5007353;28;20034;-82
2021/09/04 05:21:20;;;;;;;18.52;6.32;;;;;;;12.90;96.18;101789.69;4979240;28;20133;-81
2021/09/04 05:23:48;;;;;;;18.75;6.55;;;;;;;12.84;96.13;101791.91;4978955;28;20030;-81
2021/09/04 05:26:14;;;;;;;15.57;6.60;;;;;;;12.97;94.68;101789.00;4995940;28;20117;-81
2021/09/04 05:28:40;;;;;;;22.77;7.50;;;;;;;12.99;92.66;101789.69;4979124;28;20061;-82
2021/09/04 05:31:05;;;;;;;19.05;7.43;;;;;;;12.99;93.67;101784.44;5011666;28;20531;-81
2021/09/04 05:33:31;;;;;;;14.23;7.10;;;;;;;13.11;96.24;101794.84;4994988;28;20044;-82
2021/09/04 05:35:56;;;;;;;13.65;7.63;;;;;;;13.12;92.81;101794.72;4994929;28;20034;-82
2021/09/04 05:38:22;;;;;;;17.25;8.30;;;;;;;13.12;90.95;101791.25;5006608;28;20072;-82
2021/09/04 05:40:48;;;;;;;18.15;8.35;;;;;;;13.15;92.29;101794.44;4978959;28;20042;-80
2021/09/04 05:43:13;;;;;;;16.25;7.97;;;;;;;13.16;97.13;101795.28;5027991;28;20030;-80
2021/09/04 05:45:39;;;;;;;16.35;8.05;;;;;;;13.12;97.33;101794.72;4994970;28;20400;-80
2021/09/04 05:48:05;;;;;;;21.20;8.18;;;;;;;13.27;95.90;101791.69;4995617;28;20041;-80
2021/09/04 05:50:30;;;;;;;24.02;9.38;;;;;;;13.14;91.45;101779.59;4994371;28;20033;-80
2021/09/04 05:52:56;;;;;;;22.27;9.40;;;;;;;13.30;91.39;101794.03;5002841;28;20042;-80
2021/09/04 05:55:21;;;;;;;23.75;9.10;;;;;;;13.31;93.85;101793.91;4991825;28;20022;-81
2021/09/04 05:57:47;;;;;;;18.88;9.48;;;;;;;13.33;91.78;101796.41;4991594;28;20042;-81
2021/09/04 06:00:13;;;;;;;19.85;9.05;;;;;;;13.37;94.82;101782.84;4994671;28;20041;-81
2021/09/04 06:02:38;;;;;;;21.75;9.82;;;;;;;13.39;94.85;101786.16;4994231;28;20127;-78
2021/09/04 06:05:04;;;;;;;21.30;9.15;;;;;;;13.40;90.61;101792.25;4995354;28;20041;-80
2021/09/04 06:07:30;;;;;;;13.98;8.63;;;;;;;13.47;92.55;101790.75;4979450;28;20040;-82
2021/09/04 06:09:55;;;;;;;18.95;8.93;;;;;;;13.57;88.31;101794.19;4995599;28;20042;-84
2021/09/04 06:12:21;;;;;;;17.02;9.18;;;;;;;13.66;92.53;101802.25;4994790;28;20447;-83
2021/09/04 06:14:46;;;;;;;20.50;9.43;;;;;;;13.77;88.29;101795.00;4993603;28;20038;-79
2021/09/04 06:17:12;;;;;;;18.95;9.23;;;;;;;13.68;89.60;101797.66;4994988;28;20669;-80
2021/09/04 06:19:37;;;;;;;23.45;9.27;;;;;;;13.74;89.83;101800.53;4987256;28;20076;-78
2021/09/04 06:22:03;;;;;;;17.60;9.32;;;;;;;13.80;92.81;101809.69;5016315;28;20026;-79
2021/09/04 06:24:28;;;;;;;22.10;9.73;;;;;;;13.81;88.87;101806.09;4986756;28;20053;-82
2021/09/04 06:26:54;;;;;;;18.13;8.48;;;;;;;13.91;89.03;101800.78;4969649;28;20033;-81
2021/09/04 06:29:19;;;;;;;22.02;8.55;;;;;;;13.85;86.91;101817.19;4977920;28;20038;-82
2021/09/04 06:31:44;;;;;;;21.25;10.10;;;;;;;13.89;91.50;101802.75;4977481;28;20150;-80
2021/09/04 06:34:10;;;;;;;22.25;9.48;;;;;;;13.90;86.96;101804.41;4982020;28;20062;-80
2021/09/04 06:36:35;;;;;;;16.83;8.95;;;;;;;13.91;87.77;101804.25;4983697;28;20512;-82
2021/09/04 06:39:01;;;;;;;19.30;8.43;;;;;;;14.00;87.23;101807.84;5020103;28;20049;-82
2021/09/04 06:41:26;;;;;;;20.38;8.90;;;;;;;14.04;92.20;101811.88;5011647;28;20034;-80
2021/09/04 06:43:52;;;;;;;16.80;9.32;;;;;;;14.06;91.59;101798.53;4987773;28;20041;-79
2021/09/04 06:46:17;;;;;;;22.88;9.88;;;;;;;14.09;88.76;101804.38;4969984;28;20037;-80
2021/09/04 06:48:43;;;;;;;21.25;8.73;;;;;;;14.22;83.29;101806.66;4993388;28;20096;-80
2021/09/04 06:51:08;;;;;;;20.45;9.40;;;;;;;14.24;85.81;101817.94;4976740;28;20042;-80
2021/09/04 06:53:34;;;;;;;17.85;9.43;;;;;;;14.24;87.18;101806.50;4978663;28;20045;-83
2021/09/04 06:55:59;;;;;;;18.50;9.23;;;;;;;14.22;89.79;101806.66;4992477;28;20105;-82
2021/09/04 06:58:25;;;;;;;19.98;9.38;;;;;;;14.24;88.97;101806.50;4976319;28;20034;-80
2021/09/04 07:00:50;;;;;;;23.20;10.48;;;;;;;14.28;85.56;101806.09;5011041;28;20076;-80
2021/09/04 07:03:16;;;;;;;17.10;9.48;;;;;;;14.33;87.36;101809.13;4997465;28;20564;-81
2021/09/04 07:05:41;;;;;;;18.08;9.32;;;;;;;14.37;84.21;101794.69;5015630;28;20544;-79
2021/09/04 07:08:07;;;;;;;22.38;10.05;;;;;;;14.53;88.80;101806.41;4999331;28;20037;-82
2021/09/04 07:10:32;;;;;;;18.95;9.32;;;;;;;14.62;88.63;101810.00;5014939;28;20491;-84
2021/09/04 07:12:58;;;;;;;17.35;8.73;;;;;;;14.70;85.10;101810.09;4982255;28;20026;-83
2021/09/04 07:15:24;;;;;;;18.17;9.63;;;;;;;14.65;90.87;101805.25;4983048;28;20072;-80
2021/09/04 07:17:50;;;;;;;19.58;9.02;;;;;;;14.56;84.63;101806.09;4982503;28;20034;-81
2021/09/04 07:20:16;;;;;;;24.70;8.88;;;;;;;14.57;84.48;101808.63;5015036;28;20136;-81
2021/09/04 07:22:41;;;;;;;18.10;8.68;;;;;;;14.63;82.74;101803.75;4998818;28;20133;-80
2021/09/04 07:25:07;;;;;;;21.42;8.90;;;;;;;14.70;82.58;101807.47;5014393;28;20030;-82
2021/09/04 07:27:33;;;;;;;17.98;8.75;;;;;;;14.75;81.10;101818.44;4983296;28;20049;-80
2021/09/04 07:29:58;;;;;;;17.52;9.27;;;;;;;14.81;86.31;101806.44;4998747;28;20691;-82
2021/09/04 07:32:24;;;;;;;19.23;9.23;;;;;;;14.91;88.52;101823.03;5014510;28;20034;-81
2021/09/04 07:34:49;;;;;;;14.88;8.18;;;;;;;14.99;83.36;101823.13;4981803;28;20053;-82
2021/09/04 07:37:15;;;;;;;15.63;7.90;;;;;;;14.94;79.16;101818.28;4978405;28;20049;-80
2021/09/04 07:39:40;;;;;;;20.55;8.98;;;;;;;15.04;80.81;101820.03;4997752;28;20037;-81
2021/09/04 07:42:06;;;;;;;16.83;9.10;;;;;;;15.13;83.28;101819.97;4998252;28;20139;-81
2021/09/04 07:44:31;;;;;;;17.25;8.50;;;;;;;15.17;81.64;101820.50;5030899;28;20405;-79
2021/09/04 07:46:57;;;;;;;14.38;7.75;;;;;;;15.18;76.03;101812.44;4982175;28;20472;-81
2021/09/04 07:49:22;;;;;;;17.33;8.10;;;;;;;15.20;80.67;101812.28;4994678;28;20064;-80
2021/09/04 07:51:48;;;;;;;16.20;8.27;;;;;;;15.24;81.61;101828.66;4987849;28;20044;-82
2021/09/04 07:54:13;;;;;;;17.38;8.07;;;;;;;15.23;77.36;101824.34;4994090;28;20034;-83
2021/09/04 07:56:39;;;;;;;17.33;8.80;;;;;;;15.20;79.75;101825.50;4981743;28;20056;-83
2021/09/04 07:59:06;;;;;;;19.13;8.27;;;;;;;15.19;76.27;101837.88;4998715;28;20040;-81
2021/09/04 08:01:35;;;;;;;18.90;7.88;;;;;;;15.17;78.91;101836.38;4998273;28;20121;-85
2021/09/04 08:04:01;;;;;;;15.10;7.20;;;;;;;15.24;75.90;101829.50;4995036;28;20034;-83
2021/09/04 08:06:26;;;;;;;16.00;6.93;;;;;;;15.30;75.95;101838.63;4997967;28;20038;-82
2021/09/04 08:08:52;;;;;;;15.02;7.30;;;;;;;15.35;76.27;101842.50;4978151;28;20374;-80
2021/09/04 08:11:19;;;;;;;15.23;7.22;;;;;;;15.42;75.54;101839.25;5012861;28;20034;-82
2021/09/04 08:13:44;;;;;;;14.75;7.50;;;;;;;15.50;75.78;101839.28;4996634;28;20037;-81
2021/09/04 08:16:10;;;;;;;13.07;6.50;;;;;;;15.53;72.84;101841.66;4982160;28;20042;-82
2021/09/04 08:18:35;;;;;;;13.02;6.28;;;;;;;15.67;75.23;101843.75;5013745;28;20123;-82
2021/09/04 08:21:01;;;;;;;11.60;5.60;;;;;;;15.65;74.38;101835.16;4997877;28;20176;-80
2021/09/04 08:23:26;;;;;;;10.75;5.75;;;;;;;15.91;76.05;101842.31;4993164;28;20065;-81
2021/09/04 08:25:52;;;;;;;9.98;6.28;;;;;;;16.10;77.65;101844.72;4995972;28;20496;-81
2021/09/04 08:28:17;;;;;;;10.48;4.60;;;;;;;16.13;70.43;101838.31;4980925;28;20506;-81
2021/09/04 08:30:43;;;;;;;7.82;4.90;;;;;;;16.22;69.58;101842.66;4997143;28;20033;-82
2021/09/04 08:33:08;;;;;;;10.43;4.78;;;;;;;16.61;70.10;101844.81;5029297;28;20045;-81
2021/09/04 08:35:34;;;;;;;8.77;4.65;;;;;;;16.83;69.00;101851.41;4997329;28;20512;-80
2021/09/04 08:38:06;;;;;;;8.65;4.78;;;;;;;16.95;65.12;101849.28;4996758;28;20082;-81
2021/09/04 08:40:32;;;;;;;10.98;4.70;;;;;;;16.94;72.72;101842.34;4986274;28;20177;-79
2021/09/04 08:42:59;;;;;;;14.85;5.40;;;;;;;16.85;69.79;101859.19;5012330;28;20030;-81
2021/09/04 08:45:26;;;;;;;13.95;5.35;;;;;;;16.81;73.02;101858.66;5031690;28;20080;-77
2021/09/04 08:47:52;;;;;;;8.75;4.88;;;;;;;16.79;72.35;101854.50;4973733;28;20040;-81
2021/09/04 08:50:19;;;;;;;12.00;5.40;;;;;;;16.74;69.50;101865.56;5012719;28;20036;-81
2021/09/04 08:52:45;;;;;;;9.65;4.90;;;;;;;16.77;69.92;101853.84;4996032;28;20069;-78
2021/09/04 08:55:10;;;;;;;14.75;5.78;;;;;;;16.89;72.69;101855.22;5024283;28;20441;-79
2021/09/04 08:57:36;;;;;;;12.85;5.32;;;;;;;17.01;70.03;101859.25;4994827;28;20045;-79
2021/09/04 09:00:02;;;;;;;9.18;4.97;;;;;;;17.17;71.06;101862.94;4991384;28;20053;-80
2021/09/04 09:02:28;;;;;;;11.77;5.20;;;;;;;17.28;69.25;101859.97;4963761;28;20048;-81
2021/09/04 09:05:04;;;;;;;12.05;5.07;;;;;;;17.48;66.93;101865.81;4994233;23;20542;-77
2021/09/04 09:07:47;;;;;;;9.02;4.85;;;;;;;17.69;66.67;101870.63;5001851;28;20038;-80
2021/09/04 09:10:22;;;;;;;12.80;5.25;;;;;;;17.52;64.86;101873.25;5014076;28;20041;-79
2021/09/04 09:12:51;;;;;;;10.65;4.88;;;;;;;17.59;68.69;101876.06;5002461;28;20025;-80
2021/09/04 09:15:31;;;;;;;10.00;5.15;;;;;;;17.68;69.61;101874.25;4984618;28;20711;-79
2021/09/04 09:18:07;;;;;;;9.38;4.70;;;;;;;17.59;70.18;101865.44;4986106;28;20073;-79
2021/09/04 09:20:35;;;;;;;10.30;5.30;;;;;;;17.55;69.73;101874.72;4987917;28;20128;-78
2021/09/04 09:23:15;;;;;;;8.95;4.60;;;;;;;17.39;70.45;101883.53;5004112;28;20038;-79
2021/09/04 09:25:42;;;;;;;11.20;4.57;;;;;;;17.27;69.16;101882.16;4985021;28;20952;-82
2021/09/04 09:28:14;;;;;;;12.00;5.07;;;;;;;17.17;69.76;101879.66;4986222;28;20038;-79
2021/09/04 09:30:51;;;;;;;10.10;4.47;;;;;;;17.05;71.45;101875.66;5001945;28;20104;-79
2021/09/04 09:33:20;;;;;;;9.95;5.05;;;;;;;17.14;73.95;101872.06;4988552;28;20046;-82
2021/09/04 09:35:48;;;;;;;11.15;5.22;;;;;;;17.21;70.41;101877.50;4988017;28;20115;-82
2021/09/04 09:38:20;;;;;;;8.23;4.70;;;;;;;17.09;73.17;101871.69;4990842;28;20065;-81
2021/09/04 09:40:46;;;;;;;9.32;5.10;;;;;;;17.01;73.92;101880.47;4992831;28;20030;-80
2021/09/04 09:43:28;;;;;;;11.82;4.78;;;;;;;16.98;71.63;101880.78;4971513;28;20065;-80
2021/09/04 09:45:57;;;;;;;11.82;4.90;;;;;;;17.03;69.73;101878.47;5001437;28;20140;-81
2021/09/04 09:48:25;;;;;;;8.88;4.60;;;;;;;17.18;76.46;101881.31;4992849;28;20501;-80
2021/09/04 09:50:52;;;;;;;11.02;5.05;;;;;;;17.29;76.09;101888.97;4986229;28;20117;-81
2021/09/04 09:53:19;;;;;;;11.40;5.50;;;;;;;17.21;72.81;101883.63;5009140;28;20048;-81
2021/09/04 09:55:46;;;;;;;8.90;4.97;;;;;;;17.11;74.05;101885.63;4992070;28;20026;-78
2021/09/04 09:58:14;;;;;;;10.60;5.18;;;;;;;16.92;73.74;101884.88;5010446;28;20146;-82
2021/09/04 10:00:41;;;;;;;9.10;5.00;;;;;;;16.76;74.87;101882.13;4994186;28;20046;-79
2021/09/04 10:03:08;;;;;;;9.52;4.88;;;;;;;16.74;76.13;101887.63;5010162;28;20042;-79
2021/09/04 10:05:34;;;;;;;10.60;5.32;;;;;;;16.76;76.16;101878.66;5008843;28;20034;-82
2021/09/04 10:08:00;;;;;;;9.00;4.80;;;;;;;16.89;75.14;101893.16;4994193;28;20050;-80
2021/09/04 10:10:30;;;;;;;10.43;5.30;;;;;;;16.91;79.92;101879.75;4970228;28;20034;-80
2021/09/04 10:12:57;;;;;;;8.80;4.97;;;;;;;17.11;73.44;101891.75;4986200;28;20450;-80
2021/09/04 10:15:36;;;;;;;13.73;5.22;;;;;;;17.35;72.04;101886.66;4974349;28;20053;-80
2021/09/04 10:18:05;;;;;;;13.48;5.25;;;;;;;17.40;76.59;101887.81;5009729;28;20041;-83
2021/09/04 10:20:32;;;;;;;10.25;5.05;;;;;;;17.45;73.22;101888.16;5010592;28;20034;-81
2021/09/04 10:23:09;;;;;;;11.75;4.90;;;;;;;17.71;71.67;101889.84;5009209;28;20038;-82
2021/09/04 10:25:35;;;;;;;10.70;5.53;;;;;;;17.73;69.20;101879.06;5009612;28;20022;-80
2021/09/04 10:28:02;;;;;;;8.75;4.72;;;;;;;17.82;70.11;101894.81;5001464;28;20484;-81
2021/09/04 10:30:34;;;;;;;8.88;5.35;;;;;;;18.20;70.06;101900.47;5021270;28;20038;-80
2021/09/04 10:33:05;;;;;;;10.65;5.30;;;;;;;18.89;70.10;101902.56;5007639;28;20117;-80
2021/09/04 10:35:50;;;;;;;11.37;5.30;;;;;;;19.19;66.52;101892.13;5008509;28;20554;-80
2021/09/04 10:38:18;;;;;;;9.00;4.70;;;;;;;19.37;66.59;101891.84;4994117;28;20286;-80
2021/09/04 10:40:48;;;;;;;12.23;5.32;;;;;;;19.15;66.49;101894.31;5010866;28;20033;-77
2021/09/04 10:43:15;;;;;;;12.18;5.30;;;;;;;18.88;69.88;101887.66;5014389;28;20041;-78
2021/09/04 10:45:43;;;;;;;7.45;4.80;;;;;;;18.81;69.70;101886.69;5012374;28;20021;-81
2021/09/04 10:48:20;;;;;;;15.23;5.43;;;;;;;18.82;71.33;101883.03;5012701;28;20069;-81
2021/09/04 10:51:15;;;;;;;10.35;5.53;;;;;;;18.62;66.20;101891.38;5008218;28;20030;-80
2021/09/04 10:53:45;;;;;;;11.27;5.28;;;;;;;18.56;68.10;101873.47;5008069;28;20049;-80
2021/09/04 10:56:18;;;;;;;12.43;5.07;;;;;;;18.43;68.91;101883.81;5000845;28;20045;-79
2021/09/04 10:58:43;;;;;;;10.55;4.85;;;;;;;18.88;67.70;101878.84;5015339;28;20203;-80
2021/09/04 11:01:15;;;;;;;12.35;5.22;;;;;;;18.95;63.40;101871.81;5010585;28;20543;-81
2021/09/04 11:03:41;;;;;;;9.25;5.05;;;;;;;19.38;63.24;101866.91;4990412;28;20030;-81
2021/09/04 11:06:07;;;;;;;8.63;5.20;;;;;;;19.83;69.61;101862.56;4981597;28;20057;-81
2021/09/04 11:08:34;;;;;;;10.95;4.85;;;;;;;19.68;65.66;101870.47;4997428;28;20041;-80
2021/09/04 11:11:24;;;;;;;13.63;6.10;;;;;;;18.72;66.73;101877.03;4979692;28;20030;-80
2021/09/04 11:13:54;;;;;;;10.63;5.65;;;;;;;18.37;71.40;101876.53;4996085;28;20093;-80
2021/09/04 11:16:41;;;;;;;16.17;5.90;;;;;;;18.04;71.33;101892.50;5010622;28;20063;-81
2021/09/04 11:19:13;;;;;;;12.10;5.00;;;;;;;17.75;73.23;101888.50;4989485;28;20056;-78